createdAt,value
2023-01-03T00:00:12.237Z,0.83
2023-01-03T00:03:34.298Z,1.63
2023-01-03T00:06:39.754Z,1.00
2023-01-03T00:09:41.773Z,1.17
2023-01-03T00:12:44.944Z,0.93
2023-01-03T00:15:46.957Z,1.00
2023-01-03T00:18:49.282Z,1.30
2023-01-03T00:21:51.388Z,1.03
2023-01-03T00:24:53.739Z,1.37
2023-01-03T00:27:55.990Z,1.77
2023-01-03T00:30:58.319Z,1.97
2023-01-03T00:34:00.382Z,1.07
2023-01-03T00:37:03.214Z,2.40
2023-01-03T00:40:05.671Z,3.43
2023-01-03T00:43:26.480Z,2.10
2023-01-03T00:46:28.477Z,3.30
2023-01-03T00:49:30.913Z,2.50
2023-01-03T00:52:32.955Z,2.17
2023-01-03T00:55:35.638Z,3.27
2023-01-03T00:58:38.027Z,1.97
2023-01-03T01:01:46.670Z,2.47
2023-01-03T01:04:49.439Z,2.60
2023-01-03T01:07:51.746Z,2.50
2023-01-03T01:11:02.476Z,2.57
2023-01-03T01:14:19.716Z,2.47
2023-01-03T01:17:22.993Z,2.40
2023-01-03T01:20:25.481Z,2.90
2023-01-03T01:23:27.453Z,2.47
2023-01-03T01:26:29.737Z,2.90
2023-01-03T01:29:31.721Z,3.03
2023-01-03T01:32:34.015Z,3.43
2023-01-03T01:35:35.987Z,3.20
2023-01-03T01:38:38.309Z,3.63
2023-01-03T01:41:59.892Z,3.10
2023-01-03T01:45:12.297Z,3.47
2023-01-03T01:48:16.173Z,3.30
2023-01-03T01:51:20.613Z,2.90
2023-01-03T01:54:22.613Z,2.90
2023-01-03T01:57:26.129Z,3.00
2023-01-03T02:00:29.149Z,3.40
2023-01-03T02:03:31.552Z,4.30
2023-01-03T02:06:34.272Z,3.50
2023-01-03T02:09:36.531Z,4.47
2023-01-03T02:13:05.551Z,4.10
2023-01-03T02:16:48.374Z,3.73
2023-01-03T02:20:17.147Z,3.40
2023-01-03T02:23:31.533Z,3.53
2023-01-03T02:27:15.121Z,3.70
2023-01-03T02:30:32.724Z,3.40
2023-01-03T02:34:03.945Z,3.40
2023-01-03T02:37:35.084Z,2.97
2023-01-03T02:40:40.322Z,3.70
2023-01-03T02:44:01.456Z,3.50
2023-01-03T02:47:06.939Z,3.20
2023-01-03T02:50:13.018Z,3.40
2023-01-03T02:53:21.695Z,3.37
2023-01-03T02:56:32.402Z,3.53
2023-01-03T02:59:46.468Z,2.77
2023-01-03T03:02:55.901Z,2.60
2023-01-03T03:06:19.201Z,2.70
2023-01-03T03:09:21.416Z,3.20
2023-01-03T03:12:44.238Z,3.10
2023-01-03T03:15:58.845Z,3.90
2023-01-03T03:19:02.104Z,3.03
2023-01-03T03:22:37.546Z,3.20
2023-01-03T03:25:51.380Z,3.00
2023-01-03T03:28:59.429Z,4.93
2023-01-03T03:32:02.178Z,3.20
2023-01-03T03:35:06.544Z,3.00
2023-01-03T03:38:13.367Z,3.13
2023-01-03T03:41:43.757Z,4.30
2023-01-03T03:45:02.037Z,3.03
2023-01-03T03:48:25.539Z,2.77
2023-01-03T03:51:32.706Z,2.60
2023-01-03T03:54:36.998Z,3.13
2023-01-03T03:57:58.837Z,3.10
2023-01-03T04:01:02.154Z,3.17
2023-01-03T04:04:12.311Z,3.27
2023-01-03T04:07:14.616Z,3.80
2023-01-03T04:10:20.356Z,3.33
2023-01-03T04:13:22.650Z,3.10
2023-01-03T04:16:24.762Z,3.13
2023-01-03T04:19:27.239Z,2.80
2023-01-03T04:22:29.369Z,4.57
2023-01-03T04:25:31.693Z,4.07
2023-01-03T04:28:33.669Z,3.50
2023-01-03T04:31:36.031Z,4.20
2023-01-03T04:34:38.058Z,3.57
2023-01-03T04:37:40.327Z,3.73
2023-01-03T04:40:42.387Z,4.83
2023-01-03T04:44:02.818Z,4.77
2023-01-03T04:47:04.786Z,3.93
2023-01-03T04:50:07.992Z,3.40
2023-01-03T04:53:10.473Z,3.77
2023-01-03T04:56:12.938Z,3.97
2023-01-03T04:59:14.947Z,3.07
2023-01-03T05:02:17.394Z,3.00
2023-01-03T05:05:19.516Z,3.23
2023-01-03T05:08:21.793Z,2.97
2023-01-03T05:11:24.000Z,4.70
2023-01-03T05:14:26.214Z,4.17
2023-01-03T05:17:28.222Z,5.30
2023-01-03T05:20:49.063Z,5.13
2023-01-03T05:24:09.553Z,3.83
2023-01-03T05:27:11.920Z,4.10
2023-01-03T05:30:13.986Z,3.87
2023-01-03T05:33:16.618Z,4.47
2023-01-03T05:36:18.604Z,3.23
2023-01-03T05:39:20.881Z,4.33
2023-01-03T05:42:22.833Z,4.23
2023-01-03T05:45:27.309Z,5.83
2023-01-03T05:48:29.291Z,3.63
2023-01-03T05:51:31.781Z,5.20
2023-01-03T05:54:33.747Z,1.50
2023-01-03T05:57:36.128Z,2.73
2023-01-03T06:00:38.125Z,2.00
2023-01-03T06:03:42.844Z,2.03
2023-01-03T06:06:45.054Z,2.23
2023-01-03T06:09:48.893Z,2.63
2023-01-03T06:12:50.869Z,1.93
2023-01-03T06:16:11.342Z,1.50
2023-01-03T06:19:13.342Z,2.47
2023-01-03T06:22:15.625Z,2.40
2023-01-03T06:25:17.739Z,2.27
2023-01-03T06:28:19.978Z,2.60
2023-01-03T06:31:22.086Z,5.13
2023-01-03T06:34:24.529Z,5.30
2023-01-03T06:37:26.478Z,2.33
2023-01-03T06:40:36.152Z,4.40
2023-01-03T06:43:40.651Z,2.43
2023-01-03T06:47:01.438Z,2.30
2023-01-03T06:50:21.895Z,1.70
2023-01-03T06:53:24.638Z,3.33
2023-01-03T06:56:26.683Z,3.03
2023-01-03T06:59:29.196Z,1.60
2023-01-03T07:02:31.385Z,4.27
2023-01-03T07:05:33.959Z,5.70
2023-01-03T07:08:36.226Z,2.60
2023-01-03T07:11:39.188Z,2.33
2023-01-03T07:14:41.242Z,2.47
2023-01-03T07:17:43.463Z,2.53
2023-01-03T07:20:45.663Z,1.67
2023-01-03T07:23:48.050Z,2.40
2023-01-03T07:26:50.053Z,6.93
2023-01-03T07:29:52.337Z,2.40
2023-01-03T07:32:56.677Z,2.10
2023-01-03T07:36:11.064Z,3.03
2023-01-03T07:39:13.780Z,4.10
2023-01-03T07:42:34.794Z,1.90
2023-01-03T07:45:42.915Z,4.10
2023-01-03T07:48:47.712Z,3.37
2023-01-03T07:51:49.773Z,3.37
2023-01-03T07:54:52.028Z,4.50
2023-01-03T07:57:54.955Z,3.97
2023-01-03T08:01:06.385Z,3.90
2023-01-03T08:04:08.426Z,3.57
2023-01-03T08:07:10.707Z,3.50
2023-01-03T08:10:31.464Z,4.67
2023-01-03T08:13:33.805Z,4.17
2023-01-03T08:16:35.863Z,3.37
2023-01-03T08:19:45.133Z,3.00
2023-01-03T08:22:47.570Z,3.20
2023-01-03T08:25:49.983Z,3.00
2023-01-03T08:28:52.078Z,3.63
2023-01-03T08:31:56.831Z,2.80
2023-01-03T08:35:00.038Z,3.30
2023-01-03T08:38:05.851Z,4.93
2023-01-03T08:41:10.523Z,3.63
2023-01-03T08:44:13.885Z,3.70
2023-01-03T08:47:16.310Z,3.27
2023-01-03T08:50:18.701Z,3.63
2023-01-03T08:53:22.912Z,4.77
2023-01-03T08:56:25.153Z,4.03
2023-01-03T08:59:27.803Z,4.07
2023-01-03T09:02:30.339Z,4.57
2023-01-03T09:05:32.853Z,4.43
2023-01-03T09:08:35.503Z,5.40
2023-01-03T09:11:37.517Z,5.37
2023-01-03T09:14:39.786Z,4.70
2023-01-03T09:17:45.063Z,6.50
2023-01-03T09:20:52.023Z,6.80
2023-01-03T09:23:54.073Z,5.13
2023-01-03T09:26:56.306Z,5.87
2023-01-03T09:29:58.377Z,5.70
2023-01-03T09:33:00.731Z,2.30
2023-01-03T09:36:09.283Z,10.70
2023-01-03T09:39:16.648Z,6.17
2023-01-03T09:42:41.494Z,5.50
2023-01-03T09:45:49.677Z,3.07
2023-01-03T09:48:55.307Z,3.10
2023-01-03T09:52:16.611Z,4.70
2023-01-03T09:55:49.918Z,4.70
2023-01-03T09:59:19.354Z,4.93
2023-01-03T10:02:52.394Z,3.10
2023-01-03T10:06:24.200Z,5.93
2023-01-03T10:09:35.098Z,4.53
2023-01-03T10:12:42.415Z,4.30
2023-01-03T10:16:11.999Z,5.70
2023-01-03T10:19:55.690Z,3.37
2023-01-03T10:22:57.912Z,3.20
2023-01-03T10:26:16.664Z,4.83
2023-01-03T10:29:22.606Z,3.17
2023-01-03T10:32:33.914Z,4.00
2023-01-03T10:35:36.841Z,6.10
2023-01-03T10:38:45.135Z,5.27
2023-01-03T10:41:58.517Z,4.67
2023-01-03T10:45:05.034Z,6.43
2023-01-03T10:48:14.222Z,4.10
2023-01-03T10:51:43.140Z,5.70
2023-01-03T10:54:56.351Z,2.53
2023-01-03T10:58:01.918Z,3.63
2023-01-03T11:01:30.377Z,8.83
2023-01-03T11:04:33.020Z,3.33
2023-01-03T11:07:43.658Z,5.50
2023-01-03T11:11:28.335Z,3.10
2023-01-03T11:14:36.484Z,6.37
2023-01-03T11:17:52.059Z,6.30
2023-01-03T11:21:23.532Z,6.00
2023-01-03T11:25:08.272Z,4.63
2023-01-03T11:28:46.585Z,2.50
2023-01-03T11:32:12.101Z,3.53
2023-01-03T11:35:29.253Z,3.17
2023-01-03T11:38:59.558Z,3.97
2023-01-03T11:42:08.600Z,5.27
2023-01-03T11:45:51.144Z,7.83
2023-01-03T11:49:17.576Z,5.10
2023-01-03T11:52:23.307Z,5.70
2023-01-03T11:55:37.638Z,4.00
2023-01-03T11:59:03.349Z,4.77
2023-01-03T12:02:34.980Z,3.57
2023-01-03T12:06:02.488Z,4.07
2023-01-03T12:09:34.631Z,3.13
2023-01-03T12:13:15.747Z,5.23
2023-01-03T12:16:34.372Z,4.37
2023-01-03T12:20:20.296Z,3.63
2023-01-03T12:23:46.652Z,4.73
2023-01-03T12:27:00.716Z,4.07
2023-01-03T12:30:33.842Z,2.90
2023-01-03T12:34:02.767Z,2.93
2023-01-03T12:37:15.513Z,3.50
2023-01-03T12:40:29.165Z,2.20
2023-01-03T12:43:46.968Z,6.63
2023-01-03T12:46:55.925Z,6.00
2023-01-03T12:50:05.513Z,5.83
2023-01-03T12:53:21.953Z,4.83
2023-01-03T12:57:06.549Z,6.77
2023-01-03T13:00:26.643Z,6.67
2023-01-03T13:03:42.024Z,3.30
2023-01-03T13:06:53.603Z,4.83
2023-01-03T13:10:02.200Z,6.97
2023-01-03T13:13:05.847Z,4.50
2023-01-03T13:16:46.287Z,4.50
2023-01-03T13:19:59.627Z,2.87
2023-01-03T13:23:21.882Z,2.83
2023-01-03T13:26:28.892Z,2.73
2023-01-03T13:29:33.630Z,2.67
2023-01-03T13:33:16.893Z,3.63
2023-01-03T13:36:22.424Z,3.70
2023-01-03T13:39:43.771Z,4.07
2023-01-03T13:42:46.075Z,4.83
2023-01-03T13:45:55.258Z,5.17
2023-01-03T13:49:03.180Z,3.83
2023-01-03T13:52:25.432Z,5.37
2023-01-03T13:55:40.186Z,4.30
2023-01-03T13:58:48.983Z,8.83
2023-01-03T14:02:09.753Z,3.63
2023-01-03T14:05:22.368Z,3.20
2023-01-03T14:08:35.551Z,7.03
2023-01-03T14:12:08.103Z,8.00
2023-01-03T14:15:25.316Z,9.70
2023-01-03T14:18:30.389Z,3.33
2023-01-03T14:21:57.595Z,4.67
2023-01-03T14:25:00.077Z,5.90
2023-01-03T14:28:06.762Z,6.50
2023-01-03T14:31:18.885Z,11.73
2023-01-03T14:34:40.366Z,6.50
2023-01-03T14:37:46.341Z,8.97
2023-01-03T14:40:48.547Z,4.37
2023-01-03T14:44:14.751Z,6.73
2023-01-03T14:47:18.374Z,8.03
2023-01-03T14:50:28.137Z,11.23
2023-01-03T14:53:32.624Z,8.73
2023-01-03T14:56:35.088Z,8.97
2023-01-03T14:59:37.858Z,10.27
2023-01-03T15:02:41.361Z,15.57
2023-01-03T15:05:43.583Z,12.70
2023-01-03T15:08:47.334Z,9.13
2023-01-03T15:11:57.176Z,6.63
2023-01-03T15:15:14.907Z,10.50
2023-01-03T15:18:20.567Z,18.40
2023-01-03T15:21:23.542Z,11.70
2023-01-03T15:24:25.539Z,12.60
2023-01-03T15:27:37.024Z,9.23
2023-01-03T15:30:48.550Z,13.53
2023-01-03T15:34:08.952Z,12.53
2023-01-03T15:37:19.695Z,13.70
2023-01-03T15:40:23.306Z,12.40
2023-01-03T15:43:33.625Z,17.70
2023-01-03T15:46:36.449Z,11.40
2023-01-03T15:49:42.675Z,14.77
2023-01-03T15:52:46.246Z,12.70
2023-01-03T15:55:50.642Z,21.20
2023-01-03T15:58:56.034Z,14.77
2023-01-03T16:01:58.207Z,12.83
2023-01-03T16:05:00.539Z,16.80
2023-01-03T16:08:02.729Z,18.20
2023-01-03T16:11:13.088Z,18.60
2023-01-03T16:14:26.936Z,15.83
2023-01-03T16:17:30.633Z,13.57
2023-01-03T16:20:32.670Z,19.10
2023-01-03T16:23:35.361Z,22.43
2023-01-03T16:26:37.377Z,13.47
2023-01-03T16:29:39.642Z,18.30
2023-01-03T16:32:41.663Z,17.83
2023-01-03T16:35:43.972Z,15.80
2023-01-03T16:38:45.941Z,16.70
2023-01-03T16:42:08.369Z,22.73
2023-01-03T16:45:11.287Z,19.93
2023-01-03T16:48:19.058Z,25.23
2023-01-03T16:51:27.652Z,25.37
2023-01-03T16:54:30.723Z,27.30
2023-01-03T16:57:33.108Z,35.97
2023-01-03T17:00:36.950Z,21.97
2023-01-03T17:03:42.062Z,23.80
2023-01-03T17:06:45.349Z,22.67
2023-01-03T17:09:49.322Z,29.70
2023-01-03T17:12:51.621Z,22.07
2023-01-03T17:15:55.293Z,23.97
2023-01-03T17:18:58.624Z,27.93
2023-01-03T17:22:00.761Z,31.30
2023-01-03T17:25:03.105Z,23.60
2023-01-03T17:28:06.102Z,30.00
2023-01-03T17:31:14.460Z,26.37
2023-01-03T17:34:25.582Z,29.63
2023-01-03T17:37:27.999Z,48.10
2023-01-03T17:40:34.160Z,44.70
2023-01-03T17:43:36.899Z,55.20
2023-01-03T17:46:57.421Z,67.10
2023-01-03T17:50:01.095Z,52.97
2023-01-03T17:53:03.194Z,54.43
2023-01-03T17:56:05.735Z,63.57
2023-01-03T17:59:09.527Z,113.10
2023-01-03T18:02:21.060Z,146.23
2023-01-03T18:05:28.410Z,120.30
2023-01-03T18:08:31.261Z,107.27
2023-01-03T18:11:33.766Z,88.63
2023-01-03T18:14:36.059Z,103.57
2023-01-03T18:17:38.019Z,93.83
2023-01-03T18:20:40.481Z,103.27
2023-01-03T18:23:42.539Z,93.23
2023-01-03T18:26:49.785Z,101.20
2023-01-03T18:29:51.991Z,98.97
2023-01-03T18:32:54.346Z,96.43
2023-01-03T18:35:56.363Z,93.70
2023-01-03T18:39:06.850Z,97.37
2023-01-03T18:42:31.060Z,93.70
2023-01-03T18:45:33.492Z,76.43
2023-01-03T18:48:35.516Z,66.67
2023-01-03T18:51:37.820Z,63.47
2023-01-03T18:54:39.889Z,53.90
2023-01-03T18:57:42.331Z,59.57
2023-01-03T19:00:45.896Z,59.70
2023-01-03T19:03:49.750Z,55.00
2023-01-03T19:06:52.459Z,55.90
2023-01-03T19:09:54.771Z,55.87
2023-01-03T19:12:57.694Z,55.00
2023-01-03T19:15:59.993Z,62.50
2023-01-03T19:19:02.971Z,55.97
2023-01-03T19:22:19.404Z,60.87
2023-01-03T19:25:29.725Z,70.67
2023-01-03T19:28:32.342Z,68.07
2023-01-03T19:31:44.161Z,73.33
2023-01-03T19:34:46.655Z,70.10
2023-01-03T19:37:49.236Z,66.20
2023-01-03T19:40:52.923Z,72.90
2023-01-03T19:43:55.608Z,62.77
2023-01-03T19:46:58.024Z,64.27
2023-01-03T19:50:11.353Z,66.27
2023-01-03T19:53:14.270Z,67.07
2023-01-03T19:56:21.974Z,57.07
2023-01-03T19:59:31.654Z,52.97
2023-01-03T20:02:37.660Z,61.37
2023-01-03T20:05:40.048Z,56.43
2023-01-03T20:08:42.200Z,74.40
2023-01-03T20:11:48.476Z,95.43
2023-01-03T20:14:53.237Z,96.57
2023-01-03T20:17:56.639Z,86.37
2023-01-03T20:21:09.776Z,78.37
2023-01-03T20:24:33.297Z,52.57
2023-01-03T20:27:40.898Z,48.13
2023-01-03T20:30:46.909Z,50.27
2023-01-03T20:33:49.454Z,47.00
2023-01-03T20:36:53.301Z,48.40
2023-01-03T20:39:55.337Z,43.83
2023-01-03T20:43:01.949Z,40.20
2023-01-03T20:46:04.496Z,42.63
2023-01-03T20:49:16.452Z,43.37
2023-01-03T20:52:18.732Z,44.03
2023-01-03T20:55:24.065Z,44.53
2023-01-03T20:58:26.442Z,45.43
2023-01-03T21:01:28.913Z,48.10
2023-01-03T21:04:31.146Z,46.73
2023-01-03T21:07:54.657Z,42.40
2023-01-03T21:10:57.628Z,45.77
2023-01-03T21:14:01.873Z,47.20
2023-01-03T21:17:04.013Z,52.77
2023-01-03T21:20:10.205Z,54.23
2023-01-03T21:23:23.310Z,60.93
2023-01-03T21:26:26.266Z,64.43
2023-01-03T21:29:28.321Z,77.10
2023-01-03T21:32:30.614Z,66.60
2023-01-03T21:35:32.928Z,62.70
2023-01-03T21:38:35.203Z,63.33
2023-01-03T21:41:58.083Z,60.13
2023-01-03T21:45:01.780Z,59.10
2023-01-03T21:48:06.574Z,51.73
2023-01-03T21:51:11.751Z,51.00
2023-01-03T21:54:13.839Z,50.23
2023-01-03T21:57:22.770Z,46.57
2023-01-03T22:00:25.484Z,49.07
2023-01-03T22:03:46.648Z,54.33
2023-01-03T22:06:51.069Z,54.40
2023-01-03T22:10:14.772Z,76.97
2023-01-03T22:13:17.397Z,71.67
2023-01-03T22:16:19.670Z,73.43
2023-01-03T22:19:21.726Z,76.43
2023-01-03T22:22:24.417Z,88.63
2023-01-03T22:25:26.437Z,84.13
2023-01-03T22:28:36.608Z,89.57
2023-01-03T22:31:38.620Z,84.27
2023-01-03T22:34:40.902Z,89.20
2023-01-03T22:37:43.018Z,95.13
2023-01-03T22:40:45.284Z,93.43
2023-01-03T22:43:47.271Z,99.80
2023-01-03T22:46:49.555Z,97.40
2023-01-03T22:49:51.663Z,86.50
2023-01-03T22:52:54.899Z,89.77
2023-01-03T22:55:56.840Z,167.87
2023-01-03T22:58:59.210Z,152.20
2023-01-03T23:02:01.346Z,151.77
2023-01-03T23:05:04.053Z,117.60
2023-01-03T23:08:06.237Z,112.37
2023-01-03T23:11:34.380Z,89.80
2023-01-03T23:14:36.990Z,77.40
2023-01-03T23:17:57.973Z,62.00
2023-01-03T23:21:05.358Z,59.53
2023-01-03T23:24:15.749Z,54.33
2023-01-03T23:27:17.738Z,53.37
2023-01-03T23:30:20.350Z,58.70
2023-01-03T23:33:23.127Z,46.20
2023-01-03T23:36:26.521Z,52.77
2023-01-03T23:39:28.688Z,54.40
2023-01-03T23:42:30.923Z,51.10
2023-01-03T23:45:33.002Z,58.20
2023-01-03T23:48:35.400Z,52.67
2023-01-03T23:51:37.730Z,65.27
2023-01-03T23:54:39.998Z,61.10
2023-01-03T23:57:42.082Z,72.03
